sensor_id;sensor_type;location;lat;lon;timestamp;P1;durP1;ratioP1;P2;durP2;ratioP2
42098;SDS011;27758;55.900;8.516;2023-07-20T00:01:14;12.05;;;5.05;;
42098;SDS011;27758;55.900;8.516;2023-07-20T00:03:40;11.32;;;4.75;;
42098;SDS011;27758;55.900;8.516;2023-07-20T00:06:05;7.63;;;4.13;;
42098;SDS011;27758;55.900;8.516;2023-07-20T00:08:32;7.68;;;4.05;;
42098;SDS011;27758;55.900;8.516;2023-07-20T00:10:57;12.65;;;4.70;;
42098;SDS011;27758;55.900;8.516;2023-07-20T00:13:23;9.55;;;4.63;;
42098;SDS011;27758;55.900;8.516;2023-07-20T00:15:49;12.63;;;4.88;;
42098;SDS011;27758;55.900;8.516;2023-07-20T00:18:15;14.77;;;5.35;;
42098;SDS011;27758;55.900;8.516;2023-07-20T00:20:41;8.57;;;4.75;;
42098;SDS011;27758;55.900;8.516;2023-07-20T00:23:07;12.88;;;4.72;;
42098;SDS011;27758;55.900;8.516;2023-07-20T00:25:33;9.27;;;4.07;;
42098;SDS011;27758;55.900;8.516;2023-07-20T00:27:59;14.63;;;5.22;;
42098;SDS011;27758;55.900;8.516;2023-07-20T00:30:26;8.88;;;3.83;;
42098;SDS011;27758;55.900;8.516;2023-07-20T00:32:52;7.18;;;3.45;;
42098;SDS011;27758;55.900;8.516;2023-07-20T00:35:18;8.35;;;3.10;;
42098;SDS011;27758;55.900;8.516;2023-07-20T00:37:44;6.25;;;2.70;;
42098;SDS011;27758;55.900;8.516;2023-07-20T00:40:10;8.10;;;1.95;;
42098;SDS011;27758;55.900;8.516;2023-07-20T00:42:36;9.77;;;2.33;;
42098;SDS011;27758;55.900;8.516;2023-07-20T00:45:01;9.45;;;2.38;;
42098;SDS011;27758;55.900;8.516;2023-07-20T00:47:27;6.80;;;2.28;;
42098;SDS011;27758;55.900;8.516;2023-07-20T00:49:53;5.05;;;1.77;;
42098;SDS011;27758;55.900;8.516;2023-07-20T00:52:20;8.13;;;2.20;;
42098;SDS011;27758;55.900;8.516;2023-07-20T00:54:48;7.43;;;2.47;;
42098;SDS011;27758;55.900;8.516;2023-07-20T00:57:15;4.55;;;1.92;;
42098;SDS011;27758;55.900;8.516;2023-07-20T00:59:41;6.85;;;1.80;;
42098;SDS011;27758;55.900;8.516;2023-07-20T01:02:09;6.00;;;2.25;;
42098;SDS011;27758;55.900;8.516;2023-07-20T01:04:35;7.22;;;1.90;;
42098;SDS011;27758;55.900;8.516;2023-07-20T01:09:43;8.80;;;2.05;;
42098;SDS011;27758;55.900;8.516;2023-07-20T01:12:38;8.65;;;2.28;;
42098;SDS011;27758;55.900;8.516;2023-07-20T01:15:12;10.73;;;2.72;;
42098;SDS011;27758;55.900;8.516;2023-07-20T01:17:38;11.23;;;2.38;;
42098;SDS011;27758;55.900;8.516;2023-07-20T01:20:04;6.40;;;2.38;;
42098;SDS011;27758;55.900;8.516;2023-07-20T01:30:55;9.38;;;2.50;;
42098;SDS011;27758;55.900;8.516;2023-07-20T01:33:40;7.05;;;2.22;;
42098;SDS011;27758;55.900;8.516;2023-07-20T01:36:07;11.00;;;2.47;;
42098;SDS011;27758;55.900;8.516;2023-07-20T01:38:35;12.18;;;2.58;;
42098;SDS011;27758;55.900;8.516;2023-07-20T01:41:02;12.38;;;3.08;;
42098;SDS011;27758;55.900;8.516;2023-07-20T01:43:28;7.35;;;1.90;;
42098;SDS011;27758;55.900;8.516;2023-07-20T01:45:54;16.92;;;3.53;;
42098;SDS011;27758;55.900;8.516;2023-07-20T01:48:22;9.77;;;2.63;;
42098;SDS011;27758;55.900;8.516;2023-07-20T01:50:48;7.20;;;2.03;;
42098;SDS011;27758;55.900;8.516;2023-07-20T01:53:14;7.93;;;2.03;;
42098;SDS011;27758;55.900;8.516;2023-07-20T01:55:39;11.80;;;2.47;;
42098;SDS011;27758;55.900;8.516;2023-07-20T01:58:05;9.73;;;2.17;;
42098;SDS011;27758;55.900;8.516;2023-07-20T02:00:31;7.50;;;2.47;;
42098;SDS011;27758;55.900;8.516;2023-07-20T02:02:57;16.88;;;2.83;;
42098;SDS011;27758;55.900;8.516;2023-07-20T02:05:23;13.27;;;2.70;;
42098;SDS011;27758;55.900;8.516;2023-07-20T02:07:49;8.13;;;2.35;;
42098;SDS011;27758;55.900;8.516;2023-07-20T02:10:15;8.60;;;2.30;;
42098;SDS011;27758;55.900;8.516;2023-07-20T02:12:41;7.90;;;2.30;;
42098;SDS011;27758;55.900;8.516;2023-07-20T02:15:07;10.60;;;3.17;;
42098;SDS011;27758;55.900;8.516;2023-07-20T02:17:33;14.32;;;2.42;;
42098;SDS011;27758;55.900;8.516;2023-07-20T02:19:59;9.15;;;2.65;;
42098;SDS011;27758;55.900;8.516;2023-07-20T02:22:24;8.60;;;2.38;;
42098;SDS011;27758;55.900;8.516;2023-07-20T02:24:50;9.02;;;2.20;;
42098;SDS011;27758;55.900;8.516;2023-07-20T02:27:18;11.02;;;2.50;;
42098;SDS011;27758;55.900;8.516;2023-07-20T02:29:44;11.23;;;2.55;;
42098;SDS011;27758;55.900;8.516;2023-07-20T02:32:09;7.30;;;1.85;;
42098;SDS011;27758;55.900;8.516;2023-07-20T02:34:36;12.48;;;2.35;;
42098;SDS011;27758;55.900;8.516;2023-07-20T02:37:02;14.30;;;2.70;;
42098;SDS011;27758;55.900;8.516;2023-07-20T02:39:28;12.68;;;2.63;;
42098;SDS011;27758;55.900;8.516;2023-07-20T02:41:54;12.35;;;2.55;;
42098;SDS011;27758;55.900;8.516;2023-07-20T02:44:20;15.30;;;2.65;;
42098;SDS011;27758;55.900;8.516;2023-07-20T02:46:45;11.32;;;1.88;;
42098;SDS011;27758;55.900;8.516;2023-07-20T02:49:11;14.00;;;3.08;;
42098;SDS011;27758;55.900;8.516;2023-07-20T02:51:37;6.68;;;1.70;;
42098;SDS011;27758;55.900;8.516;2023-07-20T02:54:03;11.77;;;2.72;;
42098;SDS011;27758;55.900;8.516;2023-07-20T02:56:29;9.48;;;2.42;;
42098;SDS011;27758;55.900;8.516;2023-07-20T02:58:54;9.77;;;2.35;;
42098;SDS011;27758;55.900;8.516;2023-07-20T03:01:20;10.45;;;2.08;;
42098;SDS011;27758;55.900;8.516;2023-07-20T03:03:46;7.97;;;2.28;;
42098;SDS011;27758;55.900;8.516;2023-07-20T03:06:15;7.32;;;1.88;;
42098;SDS011;27758;55.900;8.516;2023-07-20T03:08:42;10.25;;;1.95;;
42098;SDS011;27758;55.900;8.516;2023-07-20T03:11:12;10.35;;;1.75;;
42098;SDS011;27758;55.900;8.516;2023-07-20T03:13:40;6.63;;;1.40;;
42098;SDS011;27758;55.900;8.516;2023-07-20T03:16:07;7.75;;;1.58;;
42098;SDS011;27758;55.900;8.516;2023-07-20T03:18:36;4.57;;;1.10;;
42098;SDS011;27758;55.900;8.516;2023-07-20T03:21:04;6.05;;;1.08;;
42098;SDS011;27758;55.900;8.516;2023-07-20T03:23:30;5.95;;;1.10;;
42098;SDS011;27758;55.900;8.516;2023-07-20T03:25:56;6.75;;;1.55;;
42098;SDS011;27758;55.900;8.516;2023-07-20T03:28:21;2.85;;;1.23;;
42098;SDS011;27758;55.900;8.516;2023-07-20T03:30:52;9.75;;;1.20;;
42098;SDS011;27758;55.900;8.516;2023-07-20T03:33:19;6.43;;;1.20;;
42098;SDS011;27758;55.900;8.516;2023-07-20T03:35:46;2.20;;;0.77;;
42098;SDS011;27758;55.900;8.516;2023-07-20T03:38:12;6.60;;;1.30;;
42098;SDS011;27758;55.900;8.516;2023-07-20T03:40:38;5.45;;;1.40;;
42098;SDS011;27758;55.900;8.516;2023-07-20T03:43:03;4.35;;;1.08;;
42098;SDS011;27758;55.900;8.516;2023-07-20T03:45:29;4.45;;;1.13;;
42098;SDS011;27758;55.900;8.516;2023-07-20T03:47:55;3.08;;;0.85;;
42098;SDS011;27758;55.900;8.516;2023-07-20T03:50:21;4.47;;;1.10;;
42098;SDS011;27758;55.900;8.516;2023-07-20T03:52:47;7.57;;;1.27;;
42098;SDS011;27758;55.900;8.516;2023-07-20T03:55:12;6.05;;;1.10;;
42098;SDS011;27758;55.900;8.516;2023-07-20T03:57:38;7.72;;;1.20;;
42098;SDS011;27758;55.900;8.516;2023-07-20T04:00:04;4.35;;;0.70;;
42098;SDS011;27758;55.900;8.516;2023-07-20T04:02:33;4.22;;;0.90;;
42098;SDS011;27758;55.900;8.516;2023-07-20T04:04:58;3.78;;;0.82;;
42098;SDS011;27758;55.900;8.516;2023-07-20T04:07:24;2.63;;;0.75;;
42098;SDS011;27758;55.900;8.516;2023-07-20T04:09:50;3.92;;;0.73;;
42098;SDS011;27758;55.900;8.516;2023-07-20T04:12:15;5.15;;;0.93;;
42098;SDS011;27758;55.900;8.516;2023-07-20T04:14:41;11.82;;;1.20;;
42098;SDS011;27758;55.900;8.516;2023-07-20T04:17:07;6.53;;;1.10;;
42098;SDS011;27758;55.900;8.516;2023-07-20T04:19:33;3.50;;;0.85;;
42098;SDS011;27758;55.900;8.516;2023-07-20T04:21:58;9.68;;;0.90;;
42098;SDS011;27758;55.900;8.516;2023-07-20T04:24:24;3.90;;;1.20;;
42098;SDS011;27758;55.900;8.516;2023-07-20T04:26:50;3.80;;;1.02;;
42098;SDS011;27758;55.900;8.516;2023-07-20T04:29:15;4.13;;;0.85;;
42098;SDS011;27758;55.900;8.516;2023-07-20T04:31:41;2.83;;;0.75;;
42098;SDS011;27758;55.900;8.516;2023-07-20T04:34:13;3.30;;;0.80;;
42098;SDS011;27758;55.900;8.516;2023-07-20T04:36:39;6.07;;;1.33;;
42098;SDS011;27758;55.900;8.516;2023-07-20T04:39:04;2.25;;;0.70;;
42098;SDS011;27758;55.900;8.516;2023-07-20T04:41:33;3.22;;;1.20;;
42098;SDS011;27758;55.900;8.516;2023-07-20T04:43:59;4.45;;;0.95;;
42098;SDS011;27758;55.900;8.516;2023-07-20T04:46:25;3.88;;;0.85;;
42098;SDS011;27758;55.900;8.516;2023-07-20T04:48:50;4.63;;;0.90;;
42098;SDS011;27758;55.900;8.516;2023-07-20T04:51:16;3.95;;;0.70;;
42098;SDS011;27758;55.900;8.516;2023-07-20T04:53:46;3.47;;;0.60;;
42098;SDS011;27758;55.900;8.516;2023-07-20T04:56:12;5.47;;;1.10;;
42098;SDS011;27758;55.900;8.516;2023-07-20T04:58:38;2.28;;;1.05;;
42098;SDS011;27758;55.900;8.516;2023-07-20T05:01:03;2.05;;;0.60;;
42098;SDS011;27758;55.900;8.516;2023-07-20T05:03:29;3.30;;;0.85;;
42098;SDS011;27758;55.900;8.516;2023-07-20T05:05:55;8.77;;;1.27;;
42098;SDS011;27758;55.900;8.516;2023-07-20T05:08:20;2.17;;;0.60;;
42098;SDS011;27758;55.900;8.516;2023-07-20T05:10:47;5.28;;;1.30;;
42098;SDS011;27758;55.900;8.516;2023-07-20T05:13:13;8.98;;;1.13;;
42098;SDS011;27758;55.900;8.516;2023-07-20T05:15:39;4.72;;;1.08;;
42098;SDS011;27758;55.900;8.516;2023-07-20T05:18:05;5.43;;;1.45;;
42098;SDS011;27758;55.900;8.516;2023-07-20T05:20:31;7.03;;;1.17;;
42098;SDS011;27758;55.900;8.516;2023-07-20T05:22:58;3.55;;;0.95;;
42098;SDS011;27758;55.900;8.516;2023-07-20T05:25:24;4.68;;;1.05;;
42098;SDS011;27758;55.900;8.516;2023-07-20T05:27:50;6.68;;;1.10;;
42098;SDS011;27758;55.900;8.516;2023-07-20T05:30:17;4.82;;;0.88;;
42098;SDS011;27758;55.900;8.516;2023-07-20T05:32:43;3.40;;;1.02;;
42098;SDS011;27758;55.900;8.516;2023-07-20T05:35:12;3.58;;;0.57;;
42098;SDS011;27758;55.900;8.516;2023-07-20T05:37:39;6.50;;;1.08;;
42098;SDS011;27758;55.900;8.516;2023-07-20T05:40:05;2.78;;;0.98;;
42098;SDS011;27758;55.900;8.516;2023-07-20T05:42:33;2.88;;;0.90;;
42098;SDS011;27758;55.900;8.516;2023-07-20T05:44:58;4.50;;;1.30;;
42098;SDS011;27758;55.900;8.516;2023-07-20T05:47:24;5.18;;;0.95;;
42098;SDS011;27758;55.900;8.516;2023-07-20T05:49:50;10.27;;;1.60;;
42098;SDS011;27758;55.900;8.516;2023-07-20T05:52:16;3.47;;;1.17;;
42098;SDS011;27758;55.900;8.516;2023-07-20T05:54:41;6.03;;;1.13;;
42098;SDS011;27758;55.900;8.516;2023-07-20T05:57:07;9.73;;;1.08;;
42098;SDS011;27758;55.900;8.516;2023-07-20T05:59:33;3.30;;;0.88;;
42098;SDS011;27758;55.900;8.516;2023-07-20T06:01:59;7.30;;;1.58;;
42098;SDS011;27758;55.900;8.516;2023-07-20T06:04:24;4.78;;;1.00;;
42098;SDS011;27758;55.900;8.516;2023-07-20T06:06:50;2.35;;;0.70;;
42098;SDS011;27758;55.900;8.516;2023-07-20T06:09:16;1.00;;;0.52;;
42098;SDS011;27758;55.900;8.516;2023-07-20T06:11:41;4.50;;;1.05;;
42098;SDS011;27758;55.900;8.516;2023-07-20T06:14:07;4.75;;;0.98;;
42098;SDS011;27758;55.900;8.516;2023-07-20T06:16:33;3.17;;;0.70;;
42098;SDS011;27758;55.900;8.516;2023-07-20T06:18:59;4.40;;;1.00;;
42098;SDS011;27758;55.900;8.516;2023-07-20T06:21:25;3.25;;;0.85;;
42098;SDS011;27758;55.900;8.516;2023-07-20T06:23:51;3.88;;;0.95;;
42098;SDS011;27758;55.900;8.516;2023-07-20T06:26:17;3.03;;;1.15;;
42098;SDS011;27758;55.900;8.516;2023-07-20T06:28:43;2.05;;;0.73;;
42098;SDS011;27758;55.900;8.516;2023-07-20T06:31:09;1.40;;;0.65;;
42098;SDS011;27758;55.900;8.516;2023-07-20T06:33:37;2.47;;;0.70;;
42098;SDS011;27758;55.900;8.516;2023-07-20T06:36:03;5.40;;;0.98;;
42098;SDS011;27758;55.900;8.516;2023-07-20T06:38:29;1.95;;;0.60;;
42098;SDS011;27758;55.900;8.516;2023-07-20T06:40:55;1.98;;;0.73;;
42098;SDS011;27758;55.900;8.516;2023-07-20T06:43:20;3.15;;;1.17;;
42098;SDS011;27758;55.900;8.516;2023-07-20T06:45:50;4.65;;;0.80;;
42098;SDS011;27758;55.900;8.516;2023-07-20T06:48:17;2.90;;;0.90;;
42098;SDS011;27758;55.900;8.516;2023-07-20T06:50:43;4.18;;;1.30;;
42098;SDS011;27758;55.900;8.516;2023-07-20T06:53:09;6.00;;;2.03;;
42098;SDS011;27758;55.900;8.516;2023-07-20T06:55:34;3.45;;;1.55;;
42098;SDS011;27758;55.900;8.516;2023-07-20T06:58:00;3.92;;;1.00;;
42098;SDS011;27758;55.900;8.516;2023-07-20T07:00:26;3.90;;;1.05;;
42098;SDS011;27758;55.900;8.516;2023-07-20T07:02:51;4.50;;;1.30;;
42098;SDS011;27758;55.900;8.516;2023-07-20T07:05:17;3.22;;;1.63;;
42098;SDS011;27758;55.900;8.516;2023-07-20T07:07:43;5.13;;;1.70;;
42098;SDS011;27758;55.900;8.516;2023-07-20T07:10:09;4.55;;;1.73;;
42098;SDS011;27758;55.900;8.516;2023-07-20T07:12:35;2.85;;;1.38;;
42098;SDS011;27758;55.900;8.516;2023-07-20T07:15:01;1.20;;;0.75;;
42098;SDS011;27758;55.900;8.516;2023-07-20T07:17:31;1.33;;;0.52;;
42098;SDS011;27758;55.900;8.516;2023-07-20T07:19:58;2.35;;;0.57;;
42098;SDS011;27758;55.900;8.516;2023-07-20T07:22:23;2.95;;;0.95;;
42098;SDS011;27758;55.900;8.516;2023-07-20T07:24:50;3.15;;;0.93;;
42098;SDS011;27758;55.900;8.516;2023-07-20T07:27:15;4.68;;;0.68;;
42098;SDS011;27758;55.900;8.516;2023-07-20T07:29:42;3.35;;;0.50;;
42098;SDS011;27758;55.900;8.516;2023-07-20T07:32:11;3.33;;;0.73;;
42098;SDS011;27758;55.900;8.516;2023-07-20T07:34:38;3.33;;;0.77;;
42098;SDS011;27758;55.900;8.516;2023-07-20T07:37:04;5.00;;;0.63;;
42098;SDS011;27758;55.900;8.516;2023-07-20T07:39:30;8.20;;;1.48;;
42098;SDS011;27758;55.900;8.516;2023-07-20T07:41:56;2.20;;;0.60;;
42098;SDS011;27758;55.900;8.516;2023-07-20T07:44:22;3.55;;;0.77;;
42098;SDS011;27758;55.900;8.516;2023-07-20T07:46:50;4.43;;;1.30;;
42098;SDS011;27758;55.900;8.516;2023-07-20T07:49:17;3.58;;;0.63;;
42098;SDS011;27758;55.900;8.516;2023-07-20T07:51:44;4.20;;;1.00;;
42098;SDS011;27758;55.900;8.516;2023-07-20T07:54:10;8.40;;;1.65;;
42098;SDS011;27758;55.900;8.516;2023-07-20T07:56:36;7.63;;;1.77;;
42098;SDS011;27758;55.900;8.516;2023-07-20T07:59:01;11.68;;;1.90;;
42098;SDS011;27758;55.900;8.516;2023-07-20T08:01:28;7.85;;;1.88;;
42098;SDS011;27758;55.900;8.516;2023-07-20T08:03:54;6.90;;;1.52;;
42098;SDS011;27758;55.900;8.516;2023-07-20T08:06:19;7.13;;;1.52;;
42098;SDS011;27758;55.900;8.516;2023-07-20T08:08:45;6.30;;;1.85;;
42098;SDS011;27758;55.900;8.516;2023-07-20T08:11:11;13.77;;;2.28;;
42098;SDS011;27758;55.900;8.516;2023-07-20T08:13:36;6.03;;;1.63;;
42098;SDS011;27758;55.900;8.516;2023-07-20T08:16:02;12.18;;;2.33;;
42098;SDS011;27758;55.900;8.516;2023-07-20T08:18:28;8.45;;;2.17;;
42098;SDS011;27758;55.900;8.516;2023-07-20T08:20:54;11.40;;;2.45;;
42098;SDS011;27758;55.900;8.516;2023-07-20T08:23:20;10.13;;;2.50;;
42098;SDS011;27758;55.900;8.516;2023-07-20T08:25:45;12.18;;;2.70;;
42098;SDS011;27758;55.900;8.516;2023-07-20T08:28:13;9.43;;;2.28;;
42098;SDS011;27758;55.900;8.516;2023-07-20T08:30:40;10.30;;;2.08;;
42098;SDS011;27758;55.900;8.516;2023-07-20T08:33:07;12.90;;;2.47;;
42098;SDS011;27758;55.900;8.516;2023-07-20T08:35:34;8.50;;;2.25;;
42098;SDS011;27758;55.900;8.516;2023-07-20T08:37:59;13.57;;;2.13;;
42098;SDS011;27758;55.900;8.516;2023-07-20T08:40:25;10.05;;;2.25;;
42098;SDS011;27758;55.900;8.516;2023-07-20T08:42:51;13.25;;;2.33;;
42098;SDS011;27758;55.900;8.516;2023-07-20T08:45:19;9.48;;;1.95;;
42098;SDS011;27758;55.900;8.516;2023-07-20T08:47:46;9.18;;;2.50;;
42098;SDS011;27758;55.900;8.516;2023-07-20T08:50:14;14.32;;;2.17;;
42098;SDS011;27758;55.900;8.516;2023-07-20T08:52:41;8.23;;;1.88;;
42098;SDS011;27758;55.900;8.516;2023-07-20T08:55:07;10.68;;;1.83;;
42098;SDS011;27758;55.900;8.516;2023-07-20T08:57:33;8.68;;;1.98;;
42098;SDS011;27758;55.900;8.516;2023-07-20T09:00:02;5.63;;;1.65;;
42098;SDS011;27758;55.900;8.516;2023-07-20T09:02:35;6.70;;;1.75;;
42098;SDS011;27758;55.900;8.516;2023-07-20T09:05:07;7.50;;;1.55;;
42098;SDS011;27758;55.900;8.516;2023-07-20T09:07:35;6.32;;;2.42;;
42098;SDS011;27758;55.900;8.516;2023-07-20T09:10:01;6.20;;;1.60;;
42098;SDS011;27758;55.900;8.516;2023-07-20T09:12:37;7.10;;;1.58;;
42098;SDS011;27758;55.900;8.516;2023-07-20T09:15:04;6.78;;;1.42;;
42098;SDS011;27758;55.900;8.516;2023-07-20T09:17:31;9.93;;;1.40;;
42098;SDS011;27758;55.900;8.516;2023-07-20T09:19:57;6.30;;;1.63;;
42098;SDS011;27758;55.900;8.516;2023-07-20T09:22:29;4.15;;;1.25;;
42098;SDS011;27758;55.900;8.516;2023-07-20T09:24:55;8.35;;;1.70;;
42098;SDS011;27758;55.900;8.516;2023-07-20T09:27:21;13.77;;;2.55;;
42098;SDS011;27758;55.900;8.516;2023-07-20T09:29:48;11.40;;;2.33;;
42098;SDS011;27758;55.900;8.516;2023-07-20T09:32:17;8.48;;;1.83;;
42098;SDS011;27758;55.900;8.516;2023-07-20T09:34:47;7.22;;;1.90;;
42098;SDS011;27758;55.900;8.516;2023-07-20T09:37:14;9.65;;;2.30;;
42098;SDS011;27758;55.900;8.516;2023-07-20T09:39:48;15.80;;;2.92;;
42098;SDS011;27758;55.900;8.516;2023-07-20T09:42:16;15.55;;;2.90;;
42098;SDS011;27758;55.900;8.516;2023-07-20T09:44:45;20.50;;;3.55;;
42098;SDS011;27758;55.900;8.516;2023-07-20T09:47:10;9.02;;;2.33;;
42098;SDS011;27758;55.900;8.516;2023-07-20T09:49:42;10.95;;;3.35;;
42098;SDS011;27758;55.900;8.516;2023-07-20T09:52:08;11.63;;;2.88;;
42098;SDS011;27758;55.900;8.516;2023-07-20T09:54:36;17.63;;;2.92;;
42098;SDS011;27758;55.900;8.516;2023-07-20T09:57:03;10.55;;;2.22;;
42098;SDS011;27758;55.900;8.516;2023-07-20T09:59:35;10.55;;;3.08;;
42098;SDS011;27758;55.900;8.516;2023-07-20T10:02:03;7.25;;;2.30;;
42098;SDS011;27758;55.900;8.516;2023-07-20T10:04:36;12.32;;;2.45;;
42098;SDS011;27758;55.900;8.516;2023-07-20T10:07:04;13.40;;;2.63;;
42098;SDS011;27758;55.900;8.516;2023-07-20T10:09:33;7.22;;;2.30;;
42098;SDS011;27758;55.900;8.516;2023-07-20T10:12:04;11.10;;;2.42;;
42098;SDS011;27758;55.900;8.516;2023-07-20T10:14:31;9.35;;;2.50;;
42098;SDS011;27758;55.900;8.516;2023-07-20T10:17:01;9.50;;;2.50;;
42098;SDS011;27758;55.900;8.516;2023-07-20T10:19:43;10.50;;;2.60;;
42098;SDS011;27758;55.900;8.516;2023-07-20T10:22:14;13.18;;;3.42;;
42098;SDS011;27758;55.900;8.516;2023-07-20T10:24:45;11.98;;;3.42;;
42098;SDS011;27758;55.900;8.516;2023-07-20T10:27:12;14.98;;;3.25;;
42098;SDS011;27758;55.900;8.516;2023-07-20T10:29:39;7.30;;;2.15;;
42098;SDS011;27758;55.900;8.516;2023-07-20T10:32:08;6.20;;;2.22;;
42098;SDS011;27758;55.900;8.516;2023-07-20T10:34:35;13.85;;;2.47;;
42098;SDS011;27758;55.900;8.516;2023-07-20T10:37:00;9.82;;;2.00;;
42098;SDS011;27758;55.900;8.516;2023-07-20T10:39:32;11.20;;;2.72;;
42098;SDS011;27758;55.900;8.516;2023-07-20T10:42:03;7.68;;;2.42;;
42098;SDS011;27758;55.900;8.516;2023-07-20T10:44:32;10.65;;;2.30;;
42098;SDS011;27758;55.900;8.516;2023-07-20T10:46:59;9.80;;;2.45;;
42098;SDS011;27758;55.900;8.516;2023-07-20T10:49:33;8.20;;;2.63;;
42098;SDS011;27758;55.900;8.516;2023-07-20T10:52:03;10.48;;;2.75;;
42098;SDS011;27758;55.900;8.516;2023-07-20T10:56:56;10.43;;;2.53;;
42098;SDS011;27758;55.900;8.516;2023-07-20T10:59:42;6.78;;;2.80;;
42098;SDS011;27758;55.900;8.516;2023-07-20T11:02:08;13.07;;;3.22;;
42098;SDS011;27758;55.900;8.516;2023-07-20T11:04:40;10.07;;;3.28;;
42098;SDS011;27758;55.900;8.516;2023-07-20T11:07:07;10.15;;;2.65;;
42098;SDS011;27758;55.900;8.516;2023-07-20T11:09:33;9.73;;;2.08;;
42098;SDS011;27758;55.900;8.516;2023-07-20T11:12:10;10.00;;;2.60;;
42098;SDS011;27758;55.900;8.516;2023-07-20T11:15:03;8.32;;;2.63;;
42098;SDS011;27758;55.900;8.516;2023-07-20T11:17:29;9.68;;;2.22;;
42098;SDS011;27758;55.900;8.516;2023-07-20T11:19:59;11.30;;;2.22;;
42098;SDS011;27758;55.900;8.516;2023-07-20T11:22:31;11.90;;;2.92;;
42098;SDS011;27758;55.900;8.516;2023-07-20T11:24:57;10.40;;;2.28;;
42098;SDS011;27758;55.900;8.516;2023-07-20T11:27:23;9.60;;;2.45;;
42098;SDS011;27758;55.900;8.516;2023-07-20T11:29:49;10.82;;;2.95;;
42098;SDS011;27758;55.900;8.516;2023-07-20T11:32:23;11.57;;;2.17;;
42098;SDS011;27758;55.900;8.516;2023-07-20T11:34:49;13.40;;;2.65;;
42098;SDS011;27758;55.900;8.516;2023-07-20T11:37:15;6.18;;;2.30;;
42098;SDS011;27758;55.900;8.516;2023-07-20T11:39:42;11.07;;;2.53;;
42098;SDS011;27758;55.900;8.516;2023-07-20T11:42:07;9.82;;;2.70;;
42098;SDS011;27758;55.900;8.516;2023-07-20T11:44:33;9.23;;;2.33;;
42098;SDS011;27758;55.900;8.516;2023-07-20T11:47:00;9.95;;;2.60;;
42098;SDS011;27758;55.900;8.516;2023-07-20T11:49:30;9.15;;;2.85;;
42098;SDS011;27758;55.900;8.516;2023-07-20T11:52:01;10.07;;;2.25;;
42098;SDS011;27758;55.900;8.516;2023-07-20T11:54:28;16.60;;;3.10;;
42098;SDS011;27758;55.900;8.516;2023-07-20T11:56:54;9.13;;;2.60;;
42098;SDS011;27758;55.900;8.516;2023-07-20T11:59:23;9.20;;;2.87;;
42098;SDS011;27758;55.900;8.516;2023-07-20T12:01:48;11.57;;;2.60;;
42098;SDS011;27758;55.900;8.516;2023-07-20T12:04:14;10.05;;;2.70;;
42098;SDS011;27758;55.900;8.516;2023-07-20T12:06:40;10.13;;;2.78;;
42098;SDS011;27758;55.900;8.516;2023-07-20T12:09:06;13.07;;;2.97;;
42098;SDS011;27758;55.900;8.516;2023-07-20T12:11:39;21.05;;;3.75;;
42098;SDS011;27758;55.900;8.516;2023-07-20T12:14:08;10.13;;;2.92;;
42098;SDS011;27758;55.900;8.516;2023-07-20T12:16:36;11.82;;;2.85;;
42098;SDS011;27758;55.900;8.516;2023-07-20T12:19:10;9.57;;;3.00;;
42098;SDS011;27758;55.900;8.516;2023-07-20T12:21:38;8.18;;;2.47;;
42098;SDS011;27758;55.900;8.516;2023-07-20T12:24:06;11.30;;;2.65;;
42098;SDS011;27758;55.900;8.516;2023-07-20T12:26:34;12.70;;;2.85;;
42098;SDS011;27758;55.900;8.516;2023-07-20T12:29:00;12.68;;;2.67;;
42098;SDS011;27758;55.900;8.516;2023-07-20T12:31:26;14.10;;;2.55;;
42098;SDS011;27758;55.900;8.516;2023-07-20T12:33:53;10.25;;;2.63;;
42098;SDS011;27758;55.900;8.516;2023-07-20T12:38:48;8.63;;;2.78;;
42098;SDS011;27758;55.900;8.516;2023-07-20T12:41:14;9.32;;;3.08;;
42098;SDS011;27758;55.900;8.516;2023-07-20T12:43:43;16.52;;;3.13;;
42098;SDS011;27758;55.900;8.516;2023-07-20T12:46:10;12.55;;;3.15;;
42098;SDS011;27758;55.900;8.516;2023-07-20T12:48:39;21.27;;;3.88;;
42098;SDS011;27758;55.900;8.516;2023-07-20T12:51:07;11.05;;;3.60;;
42098;SDS011;27758;55.900;8.516;2023-07-20T12:53:33;10.98;;;3.30;;
42098;SDS011;27758;55.900;8.516;2023-07-20T12:55:59;10.23;;;3.00;;
42098;SDS011;27758;55.900;8.516;2023-07-20T12:58:25;15.95;;;3.83;;
42098;SDS011;27758;55.900;8.516;2023-07-20T13:00:51;10.25;;;3.20;;
42098;SDS011;27758;55.900;8.516;2023-07-20T13:03:17;13.27;;;3.60;;
42098;SDS011;27758;55.900;8.516;2023-07-20T13:05:44;15.32;;;3.67;;
42098;SDS011;27758;55.900;8.516;2023-07-20T13:08:13;10.00;;;3.20;;
42098;SDS011;27758;55.900;8.516;2023-07-20T13:10:39;12.32;;;2.90;;
42098;SDS011;27758;55.900;8.516;2023-07-20T13:13:06;11.50;;;3.30;;
42098;SDS011;27758;55.900;8.516;2023-07-20T13:15:32;10.32;;;3.20;;
42098;SDS011;27758;55.900;8.516;2023-07-20T13:18:05;10.30;;;3.28;;
42098;SDS011;27758;55.900;8.516;2023-07-20T13:20:31;14.52;;;2.88;;
42098;SDS011;27758;55.900;8.516;2023-07-20T13:22:57;9.38;;;3.28;;
42098;SDS011;27758;55.900;8.516;2023-07-20T13:25:22;9.07;;;3.10;;
42098;SDS011;27758;55.900;8.516;2023-07-20T13:27:49;9.02;;;2.58;;
42098;SDS011;27758;55.900;8.516;2023-07-20T13:30:14;7.25;;;2.72;;
42098;SDS011;27758;55.900;8.516;2023-07-20T13:32:47;10.23;;;3.35;;
42098;SDS011;27758;55.900;8.516;2023-07-20T13:35:13;10.15;;;3.35;;
42098;SDS011;27758;55.900;8.516;2023-07-20T13:37:39;11.45;;;2.88;;
42098;SDS011;27758;55.900;8.516;2023-07-20T13:40:05;15.02;;;3.45;;
42098;SDS011;27758;55.900;8.516;2023-07-20T13:42:33;8.52;;;3.03;;
42098;SDS011;27758;55.900;8.516;2023-07-20T13:44:59;7.25;;;2.95;;
42098;SDS011;27758;55.900;8.516;2023-07-20T13:47:28;9.77;;;3.63;;
42098;SDS011;27758;55.900;8.516;2023-07-20T13:50:00;9.57;;;2.90;;
42098;SDS011;27758;55.900;8.516;2023-07-20T13:52:26;10.70;;;3.40;;
42098;SDS011;27758;55.900;8.516;2023-07-20T13:54:52;11.55;;;2.88;;
42098;SDS011;27758;55.900;8.516;2023-07-20T13:57:17;7.88;;;3.05;;
42098;SDS011;27758;55.900;8.516;2023-07-20T13:59:43;7.53;;;2.50;;
42098;SDS011;27758;55.900;8.516;2023-07-20T14:02:09;5.65;;;2.47;;
42098;SDS011;27758;55.900;8.516;2023-07-20T14:04:35;10.05;;;2.90;;
42098;SDS011;27758;55.900;8.516;2023-07-20T14:07:01;15.82;;;3.28;;
42098;SDS011;27758;55.900;8.516;2023-07-20T14:09:27;11.55;;;3.08;;
42098;SDS011;27758;55.900;8.516;2023-07-20T14:11:52;8.18;;;3.17;;
42098;SDS011;27758;55.900;8.516;2023-07-20T14:14:18;14.15;;;3.50;;
42098;SDS011;27758;55.900;8.516;2023-07-20T14:16:44;12.73;;;3.35;;
42098;SDS011;27758;55.900;8.516;2023-07-20T14:19:09;13.82;;;3.40;;
42098;SDS011;27758;55.900;8.516;2023-07-20T14:21:35;6.75;;;2.72;;
42098;SDS011;27758;55.900;8.516;2023-07-20T14:24:01;7.90;;;2.67;;
42098;SDS011;27758;55.900;8.516;2023-07-20T14:26:27;8.40;;;3.00;;
42098;SDS011;27758;55.900;8.516;2023-07-20T14:28:52;9.27;;;2.20;;
42098;SDS011;27758;55.900;8.516;2023-07-20T14:31:18;8.80;;;1.67;;
42098;SDS011;27758;55.900;8.516;2023-07-20T14:33:45;3.28;;;1.60;;
42098;SDS011;27758;55.900;8.516;2023-07-20T14:36:10;6.53;;;2.05;;
42098;SDS011;27758;55.900;8.516;2023-07-20T14:38:36;7.00;;;1.75;;
42098;SDS011;27758;55.900;8.516;2023-07-20T14:41:02;8.30;;;1.75;;
42098;SDS011;27758;55.900;8.516;2023-07-20T14:43:28;5.85;;;2.10;;
42098;SDS011;27758;55.900;8.516;2023-07-20T14:45:54;9.43;;;2.72;;
42098;SDS011;27758;55.900;8.516;2023-07-20T14:48:20;6.85;;;2.10;;
42098;SDS011;27758;55.900;8.516;2023-07-20T14:50:48;8.68;;;2.55;;
42098;SDS011;27758;55.900;8.516;2023-07-20T14:53:13;7.78;;;2.10;;
42098;SDS011;27758;55.900;8.516;2023-07-20T14:55:39;7.05;;;2.28;;
42098;SDS011;27758;55.900;8.516;2023-07-20T14:58:06;5.82;;;2.00;;